Time;durP1;ratioP1;P1;durP2;ratioP2;P2;SDS_P1;SDS_P2;PMS_P1;PMS_P2;Temp;Humidity;BMP_temperature;BMP_pressure;BME280_temperature;BME280_humidity;BME280_pressure;Samples;Min_cycle;Max_cycle;Signal;HPM_P1;HPM_P2
2021/07/20 00:01:01;;;;;;;22.45;2.80;;;;;;;;;;5035194;28;20477;-45
2021/07/20 00:03:28;;;;;;;28.80;3.38;;;;;;;;;;5036678;28;20028;-47
2021/07/20 00:05:55;;;;;;;21.92;3.40;;;;;;;;;;5033849;28;20121;-43
2021/07/20 00:08:22;;;;;;;25.52;3.20;;;;;;;;;;5044146;28;20025;-43
2021/07/20 00:10:51;;;;;;;25.90;3.05;;;;;;;;;;5037722;28;20048;-44
2021/07/20 00:13:20;;;;;;;22.70;2.80;;;;;;;;;;5046681;28;20057;-44
2021/07/20 00:15:47;;;;;;;19.92;2.90;;;;;;;;;;5034973;28;20516;-52
2021/07/20 00:18:15;;;;;;;18.95;2.40;;;;;;;;;;5032322;28;20052;-45
2021/07/20 00:20:43;;;;;;;19.70;2.55;;;;;;;;;;5032376;28;20029;-44
2021/07/20 00:23:10;;;;;;;23.83;3.33;;;;;;;;;;5035996;28;20018;-49
2021/07/20 00:25:37;;;;;;;21.02;3.20;;;;;;;;;;5035304;28;20060;-48
2021/07/20 00:28:05;;;;;;;14.30;2.75;;;;;;;;;;5048148;28;20025;-49
2021/07/20 00:30:32;;;;;;;14.20;2.15;;;;;;;;;;5045160;28;20025;-50
2021/07/20 00:32:59;;;;;;;18.20;2.40;;;;;;;;;;5040481;28;20037;-49
2021/07/20 00:35:26;;;;;;;13.05;2.35;;;;;;;;;;5047199;28;20552;-43
2021/07/20 00:37:53;;;;;;;16.27;2.70;;;;;;;;;;5045968;28;20029;-42
2021/07/20 00:40:20;;;;;;;24.48;3.20;;;;;;;;;;5045244;28;20032;-42
2021/07/20 00:42:48;;;;;;;13.77;2.30;;;;;;;;;;5045936;28;20044;-43
2021/07/20 00:45:16;;;;;;;12.85;2.38;;;;;;;;;;5043545;28;20037;-42
2021/07/20 00:47:43;;;;;;;14.43;2.30;;;;;;;;;;5047434;28;20058;-43
2021/07/20 00:50:12;;;;;;;24.88;2.83;;;;;;;;;;5047943;28;20032;-43
2021/07/20 00:52:39;;;;;;;13.93;2.33;;;;;;;;;;5046015;28;20029;-43
2021/07/20 00:55:06;;;;;;;18.83;2.38;;;;;;;;;;5037516;28;20455;-43
2021/07/20 00:57:34;;;;;;;15.82;2.55;;;;;;;;;;5052455;28;20033;-43
2021/07/20 01:00:01;;;;;;;14.43;2.35;;;;;;;;;;5042989;28;20022;-43
2021/07/20 01:02:28;;;;;;;16.83;2.80;;;;;;;;;;5039441;28;20029;-44
2021/07/20 01:04:55;;;;;;;21.23;2.35;;;;;;;;;;5045870;28;20049;-44
2021/07/20 01:07:23;;;;;;;14.18;2.33;;;;;;;;;;5046081;28;20031;-42
2021/07/20 01:09:50;;;;;;;22.63;2.40;;;;;;;;;;5047829;28;20112;-43
2021/07/20 01:12:18;;;;;;;14.95;2.78;;;;;;;;;;5047742;28;20025;-44
2021/07/20 01:14:45;;;;;;;13.70;2.20;;;;;;;;;;5036982;28;20035;-44
2021/07/20 01:17:12;;;;;;;12.13;2.28;;;;;;;;;;5035830;28;20092;-45
2021/07/20 01:19:45;;;;;;;15.25;2.22;;;;;;;;;;5030738;28;20109;-43
2021/07/20 01:22:13;;;;;;;13.93;2.47;;;;;;;;;;5039040;28;20468;-47
2021/07/20 01:24:40;;;;;;;13.85;2.05;;;;;;;;;;5046375;28;20033;-43
2021/07/20 01:27:07;;;;;;;9.32;2.17;;;;;;;;;;5046082;28;20099;-42
2021/07/20 01:29:34;;;;;;;13.13;2.10;;;;;;;;;;5042160;28;20423;-41
2021/07/20 01:32:03;;;;;;;12.82;2.03;;;;;;;;;;5046418;28;20028;-42
2021/07/20 01:34:30;;;;;;;15.10;1.95;;;;;;;;;;5048539;28;20503;-41
2021/07/20 01:36:57;;;;;;;13.63;2.25;;;;;;;;;;5044225;28;20473;-44
2021/07/20 01:39:25;;;;;;;9.85;2.00;;;;;;;;;;5045195;28;20072;-50
2021/07/20 01:41:52;;;;;;;11.48;2.05;;;;;;;;;;5041842;28;20028;-43
2021/07/20 01:44:19;;;;;;;9.70;1.80;;;;;;;;;;5043763;28;20755;-42
2021/07/20 01:46:47;;;;;;;10.95;2.42;;;;;;;;;;5043189;28;20104;-39
2021/07/20 01:49:16;;;;;;;10.57;1.85;;;;;;;;;;5048956;28;20017;-42
2021/07/20 01:51:43;;;;;;;9.02;1.90;;;;;;;;;;5047600;28;20033;-40
2021/07/20 01:54:11;;;;;;;14.73;2.22;;;;;;;;;;5035373;28;20055;-58
2021/07/20 01:56:39;;;;;;;10.77;1.88;;;;;;;;;;5032074;28;20037;-41
2021/07/20 01:59:09;;;;;;;13.65;1.67;;;;;;;;;;5038071;28;20075;-42
2021/07/20 02:01:43;;;;;;;17.70;2.15;;;;;;;;;;5040351;28;20022;-49
2021/07/20 02:09:29;;;;;;;13.73;2.25;;;;;;;;;;5045073;28;20117;-41
2021/07/20 02:11:57;;;;;;;15.93;2.35;;;;;;;;;;5039030;28;20021;-41
2021/07/20 02:14:28;;;;;;;16.67;2.00;;;;;;;;;;5043037;28;20021;-46
2021/07/20 02:16:56;;;;;;;12.07;2.33;;;;;;;;;;5046861;28;20049;-40
2021/07/20 02:19:26;;;;;;;10.43;1.92;;;;;;;;;;5042753;28;20025;-43
2021/07/20 02:21:54;;;;;;;12.77;2.15;;;;;;;;;;5044482;28;20017;-41
2021/07/20 02:24:29;;;;;;;13.38;1.88;;;;;;;;;;5047889;28;20067;-51
2021/07/20 02:26:58;;;;;;;10.95;1.80;;;;;;;;;;5046643;28;20021;-41
2021/07/20 02:29:25;;;;;;;11.40;1.85;;;;;;;;;;5051050;28;20031;-40
2021/07/20 02:31:54;;;;;;;10.70;1.58;;;;;;;;;;5047469;28;20083;-40
2021/07/20 02:34:23;;;;;;;21.70;1.95;;;;;;;;;;5049656;28;20048;-40
2021/07/20 02:36:50;;;;;;;10.27;1.58;;;;;;;;;;5043795;28;20112;-40
2021/07/20 02:39:18;;;;;;;12.70;2.13;;;;;;;;;;5043473;28;20029;-40
2021/07/20 02:41:47;;;;;;;18.30;2.00;;;;;;;;;;5041905;28;20022;-41
2021/07/20 02:44:15;;;;;;;13.93;1.90;;;;;;;;;;5038552;28;20046;-43
2021/07/20 02:46:43;;;;;;;12.63;2.25;;;;;;;;;;5042333;28;20690;-41
2021/07/20 02:49:10;;;;;;;20.17;1.98;;;;;;;;;;5053791;28;20047;-40
2021/07/20 02:51:37;;;;;;;14.02;1.98;;;;;;;;;;5051816;28;20033;-41
2021/07/20 02:54:05;;;;;;;15.00;2.22;;;;;;;;;;5040063;28;20026;-41
2021/07/20 02:56:32;;;;;;;14.43;2.20;;;;;;;;;;5037446;28;20132;-41
2021/07/20 02:59:06;;;;;;;7.03;1.92;;;;;;;;;;5040568;28;20527;-41
2021/07/20 03:01:36;;;;;;;12.30;1.98;;;;;;;;;;5044245;28;20029;-43
2021/07/20 03:04:04;;;;;;;13.43;2.10;;;;;;;;;;5037920;28;20167;-41
2021/07/20 03:06:32;;;;;;;11.02;2.22;;;;;;;;;;5041746;28;20385;-40
2021/07/20 03:09:00;;;;;;;8.43;1.55;;;;;;;;;;5048141;28;20062;-43
2021/07/20 03:11:36;;;;;;;14.15;2.28;;;;;;;;;;5050052;28;20033;-40
2021/07/20 03:14:06;;;;;;;11.55;2.15;;;;;;;;;;5044449;28;20104;-41
2021/07/20 03:16:35;;;;;;;8.23;2.00;;;;;;;;;;5047968;28;20462;-41
2021/07/20 03:19:02;;;;;;;20.40;2.15;;;;;;;;;;5045875;28;20087;-40
2021/07/20 03:21:30;;;;;;;11.05;1.90;;;;;;;;;;5044911;28;20072;-43
2021/07/20 03:23:57;;;;;;;12.65;2.28;;;;;;;;;;5042252;28;20024;-40
2021/07/20 03:26:25;;;;;;;7.18;1.60;;;;;;;;;;5049013;28;20115;-41
2021/07/20 03:28:52;;;;;;;11.10;2.00;;;;;;;;;;5046962;28;20052;-40
2021/07/20 03:31:20;;;;;;;15.80;2.20;;;;;;;;;;5049494;28;20112;-40
2021/07/20 03:33:47;;;;;;;7.28;1.90;;;;;;;;;;5050787;28;20468;-40
2021/07/20 03:36:14;;;;;;;9.63;1.95;;;;;;;;;;5047723;28;20645;-41
2021/07/20 03:38:41;;;;;;;9.93;1.90;;;;;;;;;;5049101;28;20025;-44
2021/07/20 03:41:08;;;;;;;9.60;1.40;;;;;;;;;;5049432;28;20033;-47
2021/07/20 03:43:36;;;;;;;10.05;1.95;;;;;;;;;;5049981;28;20388;-49
2021/07/20 03:46:03;;;;;;;7.63;1.83;;;;;;;;;;5049233;28;20064;-43
2021/07/20 03:48:31;;;;;;;9.93;2.15;;;;;;;;;;5047123;28;20028;-57
2021/07/20 03:50:59;;;;;;;7.47;1.50;;;;;;;;;;5048594;28;20032;-48
2021/07/20 03:53:30;;;;;;;6.13;1.58;;;;;;;;;;5046762;28;20028;-38
2021/07/20 03:55:59;;;;;;;5.20;1.50;;;;;;;;;;5043119;28;20148;-39
2021/07/20 03:58:27;;;;;;;4.43;1.83;;;;;;;;;;5040769;28;20037;-43
2021/07/20 04:00:56;;;;;;;10.93;1.80;;;;;;;;;;5040031;28;20021;-39
2021/07/20 04:03:26;;;;;;;7.68;1.40;;;;;;;;;;5044916;28;20102;-40
2021/07/20 04:05:55;;;;;;;7.22;1.33;;;;;;;;;;5039421;28;20034;-40
2021/07/20 04:08:23;;;;;;;7.57;1.20;;;;;;;;;;5044842;28;20048;-40
2021/07/20 04:10:51;;;;;;;6.68;1.52;;;;;;;;;;5038366;28;20031;-40
2021/07/20 04:13:18;;;;;;;10.77;1.73;;;;;;;;;;5049543;28;20025;-40
2021/07/20 04:15:56;;;;;;;7.60;1.45;;;;;;;;;;5050885;28;20031;-40
2021/07/20 04:18:24;;;;;;;5.72;1.42;;;;;;;;;;5052859;28;20369;-42
2021/07/20 04:20:51;;;;;;;7.82;1.52;;;;;;;;;;5051676;28;20388;-40
2021/07/20 04:23:23;;;;;;;11.15;1.75;;;;;;;;;;5052417;28;20438;-41
2021/07/20 04:25:52;;;;;;;7.05;1.35;;;;;;;;;;5051559;28;20079;-44
2021/07/20 04:28:22;;;;;;;4.38;1.30;;;;;;;;;;5051279;28;20435;-40
2021/07/20 04:30:49;;;;;;;11.43;1.40;;;;;;;;;;5049355;28;20021;-43
2021/07/20 04:33:18;;;;;;;6.35;1.50;;;;;;;;;;5052209;28;20041;-47
2021/07/20 04:35:46;;;;;;;9.90;1.48;;;;;;;;;;5051603;28;20029;-44
2021/07/20 04:38:13;;;;;;;8.27;1.33;;;;;;;;;;5052102;28;20493;-52
2021/07/20 04:40:41;;;;;;;9.90;1.48;;;;;;;;;;5050634;28;20033;-56
2021/07/20 04:43:08;;;;;;;8.32;1.30;;;;;;;;;;5050330;28;20045;-41
2021/07/20 04:45:36;;;;;;;3.33;1.00;;;;;;;;;;5050799;28;20033;-41
2021/07/20 04:48:03;;;;;;;9.30;1.02;;;;;;;;;;5052066;28;20048;-46
2021/07/20 04:50:30;;;;;;;5.28;1.17;;;;;;;;;;5051225;28;20372;-43
2021/07/20 04:52:59;;;;;;;6.95;1.20;;;;;;;;;;5051923;28;20021;-53
2021/07/20 04:55:28;;;;;;;5.72;1.20;;;;;;;;;;5050338;28;20522;-42
2021/07/20 04:57:56;;;;;;;4.97;1.17;;;;;;;;;;5051190;28;20025;-56
2021/07/20 05:00:23;;;;;;;7.80;1.50;;;;;;;;;;5051852;28;20048;-51
2021/07/20 05:02:51;;;;;;;6.43;1.35;;;;;;;;;;5050694;28;20541;-51
2021/07/20 05:05:23;;;;;;;5.78;1.10;;;;;;;;;;5051927;28;20380;-53
2021/07/20 05:07:53;;;;;;;4.57;1.52;;;;;;;;;;5051782;28;20096;-44
2021/07/20 05:10:21;;;;;;;2.58;1.00;;;;;;;;;;5049392;28;20106;-44
2021/07/20 05:12:48;;;;;;;8.90;1.10;;;;;;;;;;5050701;28;20024;-57
2021/07/20 05:15:17;;;;;;;5.57;1.17;;;;;;;;;;5051174;28;20027;-55
2021/07/20 05:17:45;;;;;;;7.75;1.33;;;;;;;;;;5050403;28;20028;-50
2021/07/20 05:20:13;;;;;;;4.90;1.27;;;;;;;;;;5052229;28;20106;-57
2021/07/20 05:22:40;;;;;;;4.18;1.25;;;;;;;;;;5052004;28;20025;-54
2021/07/20 05:25:08;;;;;;;4.00;0.80;;;;;;;;;;5052208;28;20500;-57
2021/07/20 05:27:36;;;;;;;3.92;1.00;;;;;;;;;;5051784;28;20020;-57
2021/07/20 05:30:06;;;;;;;5.68;1.25;;;;;;;;;;5052335;28;20028;-56
2021/07/20 05:32:36;;;;;;;3.85;1.08;;;;;;;;;;5051885;28;20043;-52
2021/07/20 05:35:04;;;;;;;5.60;1.10;;;;;;;;;;5052086;28;20021;-49
2021/07/20 05:37:35;;;;;;;3.72;1.20;;;;;;;;;;5051615;28;20047;-52
2021/07/20 05:40:03;;;;;;;7.10;1.13;;;;;;;;;;5052247;28;20044;-49
2021/07/20 05:42:32;;;;;;;4.50;0.85;;;;;;;;;;5051608;28;20029;-48
2021/07/20 05:44:59;;;;;;;5.80;1.00;;;;;;;;;;5052073;28;20541;-44
2021/07/20 05:47:27;;;;;;;5.72;1.10;;;;;;;;;;5051547;28;20021;-40
2021/07/20 05:49:54;;;;;;;2.38;0.80;;;;;;;;;;5052143;28;20372;-43
2021/07/20 05:52:22;;;;;;;6.45;1.30;;;;;;;;;;5052032;28;20029;-42
2021/07/20 05:54:49;;;;;;;7.25;1.40;;;;;;;;;;5051487;28;20376;-40
2021/07/20 05:57:17;;;;;;;6.95;1.38;;;;;;;;;;5052970;28;20044;-40
2021/07/20 05:59:45;;;;;;;4.32;1.05;;;;;;;;;;5055766;28;20096;-41
2021/07/20 06:02:13;;;;;;;4.15;1.30;;;;;;;;;;5056330;28;20468;-46
2021/07/20 06:04:41;;;;;;;2.75;1.20;;;;;;;;;;5055922;28;20032;-44
2021/07/20 06:07:09;;;;;;;5.00;1.17;;;;;;;;;;5054535;28;20079;-40
2021/07/20 06:09:37;;;;;;;3.47;1.10;;;;;;;;;;5055760;28;20021;-48
2021/07/20 06:12:08;;;;;;;6.40;1.42;;;;;;;;;;5056157;28;20491;-41
2021/07/20 06:14:36;;;;;;;4.30;1.02;;;;;;;;;;5055615;28;20025;-42
2021/07/20 06:17:04;;;;;;;2.53;0.95;;;;;;;;;;5055503;28;20490;-40
2021/07/20 06:19:32;;;;;;;3.67;1.33;;;;;;;;;;5055456;28;20115;-42
2021/07/20 06:22:00;;;;;;;3.75;1.20;;;;;;;;;;5055712;28;20029;-41
2021/07/20 06:24:27;;;;;;;3.67;1.10;;;;;;;;;;5055320;28;20391;-42
2021/07/20 06:26:55;;;;;;;6.40;1.10;;;;;;;;;;5055664;28;20487;-42
2021/07/20 06:29:22;;;;;;;2.00;0.80;;;;;;;;;;5055040;28;20070;-42
2021/07/20 06:31:50;;;;;;;5.10;1.00;;;;;;;;;;5056007;28;20035;-46
2021/07/20 06:34:17;;;;;;;2.83;1.00;;;;;;;;;;5055478;28;20469;-40
2021/07/20 06:36:44;;;;;;;3.72;0.90;;;;;;;;;;5055192;28;20037;-41
2021/07/20 06:39:11;;;;;;;4.25;0.90;;;;;;;;;;5055316;28;20105;-41
2021/07/20 06:41:39;;;;;;;6.43;1.10;;;;;;;;;;5055133;28;20542;-44
2021/07/20 06:44:06;;;;;;;4.13;0.90;;;;;;;;;;5055172;28;20124;-40
2021/07/20 06:46:34;;;;;;;3.65;0.80;;;;;;;;;;5055013;28;20086;-42
2021/07/20 06:49:01;;;;;;;2.88;1.15;;;;;;;;;;5054876;28;20028;-42
2021/07/20 06:51:31;;;;;;;2.35;1.02;;;;;;;;;;5053544;28;20029;-41
2021/07/20 06:53:58;;;;;;;5.95;0.93;;;;;;;;;;5055273;28;20025;-42
2021/07/20 06:56:28;;;;;;;4.63;1.10;;;;;;;;;;5054585;28;20025;-42
2021/07/20 06:58:55;;;;;;;2.30;0.77;;;;;;;;;;5051122;28;20025;-41
2021/07/20 07:01:23;;;;;;;5.03;1.10;;;;;;;;;;5054037;28;20021;-41
2021/07/20 07:04:25;;;;;;;4.28;0.88;;;;;;;;;;5054297;28;20052;-42
2021/07/20 07:06:54;;;;;;;5.32;0.98;;;;;;;;;;5031242;28;20037;-46
2021/07/20 07:09:22;;;;;;;3.10;0.65;;;;;;;;;;5049841;28;20040;-42
2021/07/20 07:11:49;;;;;;;4.15;0.90;;;;;;;;;;5053832;28;20555;-40
2021/07/20 07:14:16;;;;;;;3.42;0.90;;;;;;;;;;5054220;28;20108;-41
2021/07/20 07:16:45;;;;;;;6.20;1.05;;;;;;;;;;5053608;28;20033;-40
2021/07/20 07:19:15;;;;;;;4.18;0.90;;;;;;;;;;5053977;28;20028;-41
2021/07/20 07:21:42;;;;;;;2.10;0.82;;;;;;;;;;5053961;28;20058;-41
2021/07/20 07:24:13;;;;;;;4.00;0.80;;;;;;;;;;5053976;28;20029;-42
2021/07/20 07:26:41;;;;;;;3.55;0.77;;;;;;;;;;5053745;28;20036;-40
2021/07/20 07:29:12;;;;;;;3.15;1.00;;;;;;;;;;5053419;28;20024;-42
2021/07/20 07:31:40;;;;;;;2.60;0.75;;;;;;;;;;5054001;28;20465;-41
2021/07/20 07:34:07;;;;;;;6.93;1.02;;;;;;;;;;5053452;28;20032;-44
2021/07/20 07:36:34;;;;;;;4.55;0.82;;;;;;;;;;5053750;28;20043;-41
2021/07/20 07:39:05;;;;;;;3.70;0.80;;;;;;;;;;5052857;28;20021;-41
2021/07/20 07:41:34;;;;;;;3.78;0.98;;;;;;;;;;5053689;28;20035;-41
2021/07/20 07:44:05;;;;;;;2.92;0.90;;;;;;;;;;5053008;28;20056;-40
2021/07/20 07:46:36;;;;;;;3.95;0.90;;;;;;;;;;5053724;28;20036;-42
2021/07/20 07:49:03;;;;;;;3.45;0.60;;;;;;;;;;5052815;28;20548;-44
2021/07/20 07:51:31;;;;;;;3.03;1.15;;;;;;;;;;5053573;28;20064;-47
2021/07/20 07:54:00;;;;;;;2.53;0.88;;;;;;;;;;5053225;28;20524;-42
2021/07/20 07:56:28;;;;;;;6.88;1.00;;;;;;;;;;5053110;28;20039;-44
2021/07/20 07:58:56;;;;;;;2.47;0.93;;;;;;;;;;5052689;28;20033;-41
2021/07/20 08:01:24;;;;;;;3.28;0.85;;;;;;;;;;5053293;28;20057;-43
2021/07/20 08:03:52;;;;;;;4.53;1.02;;;;;;;;;;5053073;28;20032;-42
2021/07/20 08:06:22;;;;;;;6.43;1.33;;;;;;;;;;5053120;28;20071;-44
2021/07/20 08:08:50;;;;;;;1.60;0.70;;;;;;;;;;5052504;28;20491;-42
2021/07/20 08:11:17;;;;;;;1.60;0.80;;;;;;;;;;5053039;28;20025;-41
2021/07/20 08:13:44;;;;;;;1.88;0.80;;;;;;;;;;5053154;28;20070;-42
2021/07/20 08:16:12;;;;;;;1.52;0.65;;;;;;;;;;5052453;28;20041;-45
2021/07/20 08:18:40;;;;;;;2.47;0.80;;;;;;;;;;5053112;28;20029;-42
2021/07/20 08:21:08;;;;;;;3.58;0.90;;;;;;;;;;5051308;28;20116;-42
2021/07/20 08:23:35;;;;;;;2.88;0.80;;;;;;;;;;5052991;28;20330;-41
2021/07/20 08:26:07;;;;;;;5.82;1.08;;;;;;;;;;5052357;28;20103;-40
2021/07/20 08:28:47;;;;;;;3.63;0.88;;;;;;;;;;5052893;28;20029;-41
2021/07/20 08:31:15;;;;;;;2.88;0.70;;;;;;;;;;5052182;28;20025;-42
2021/07/20 08:33:44;;;;;;;2.35;0.90;;;;;;;;;;5052720;28;20029;-41
2021/07/20 08:36:12;;;;;;;3.60;0.95;;;;;;;;;;5052086;28;20119;-41
2021/07/20 08:38:41;;;;;;;2.13;0.85;;;;;;;;;;5052490;28;20017;-41
2021/07/20 08:41:09;;;;;;;3.97;1.25;;;;;;;;;;5051830;28;20029;-41
2021/07/20 08:43:48;;;;;;;3.35;0.70;;;;;;;;;;5052285;28;20135;-42
2021/07/20 08:46:15;;;;;;;1.63;0.90;;;;;;;;;;5052040;28;20036;-41
2021/07/20 08:48:45;;;;;;;3.20;0.70;;;;;;;;;;5052229;28;20017;-41
2021/07/20 08:51:17;;;;;;;3.08;0.70;;;;;;;;;;5051783;28;20078;-39
2021/07/20 08:54:12;;;;;;;2.10;0.70;;;;;;;;;;5052456;28;20369;-42
2021/07/20 08:56:44;;;;;;;7.25;0.98;;;;;;;;;;5047965;28;20471;-43
2021/07/20 08:59:23;;;;;;;2.60;0.90;;;;;;;;;;5052758;28;20131;-41
2021/07/20 09:02:02;;;;;;;1.77;0.70;;;;;;;;;;5052036;28;20056;-44
2021/07/20 09:04:38;;;;;;;2.95;1.23;;;;;;;;;;5052728;28;20044;-42
2021/07/20 09:07:09;;;;;;;2.38;0.70;;;;;;;;;;5052148;28;20024;-42
2021/07/20 09:09:39;;;;;;;1.83;0.73;;;;;;;;;;5052542;28;20389;-40
2021/07/20 09:12:20;;;;;;;1.23;0.80;;;;;;;;;;5052106;28;20091;-40
2021/07/20 09:14:56;;;;;;;4.53;0.93;;;;;;;;;;5052225;28;20108;-42
2021/07/20 09:17:29;;;;;;;3.65;0.63;;;;;;;;;;5051926;28;20477;-42
2021/07/20 09:19:59;;;;;;;2.58;0.57;;;;;;;;;;5052238;28;20056;-40
2021/07/20 09:22:32;;;;;;;3.72;0.80;;;;;;;;;;5051899;28;20354;-47
2021/07/20 09:25:08;;;;;;;4.35;1.00;;;;;;;;;;5051741;28;20040;-41
2021/07/20 09:27:38;;;;;;;3.40;0.90;;;;;;;;;;5051950;28;20499;-42
2021/07/20 09:30:10;;;;;;;3.20;0.70;;;;;;;;;;5051747;28;20021;-41
2021/07/20 09:32:55;;;;;;;2.93;1.03;;;;;;;;;;5051749;28;20017;-42
2021/07/20 09:35:48;;;;;;;2.08;0.80;;;;;;;;;;5051789;28;20423;-45
2021/07/20 09:38:26;;;;;;;2.90;0.80;;;;;;;;;;5050586;28;20045;-41
2021/07/20 09:41:02;;;;;;;2.88;0.85;;;;;;;;;;5051448;28;20031;-40
2021/07/20 09:43:43;;;;;;;2.10;0.80;;;;;;;;;;5051114;28;20077;-44
2021/07/20 09:46:15;;;;;;;2.72;0.80;;;;;;;;;;5051919;28;20430;-41
2021/07/20 09:48:45;;;;;;;5.38;0.80;;;;;;;;;;5051248;28;20017;-43
2021/07/20 09:51:38;;;;;;;3.65;0.98;;;;;;;;;;5051155;28;20380;-41
2021/07/20 09:54:28;;;;;;;5.65;0.70;;;;;;;;;;5043110;28;20395;-44
2021/07/20 09:57:16;;;;;;;5.32;0.80;;;;;;;;;;5050881;28;20032;-41
2021/07/20 09:59:50;;;;;;;1.77;0.80;;;;;;;;;;5051504;28;20447;-41
2021/07/20 10:02:37;;;;;;;5.22;0.70;;;;;;;;;;5050777;28;20075;-41
2021/07/20 10:05:28;;;;;;;2.25;0.80;;;;;;;;;;5040386;28;20049;-44
2021/07/20 10:07:56;;;;;;;3.53;0.77;;;;;;;;;;5047803;28;20450;-41
2021/07/20 10:10:34;;;;;;;6.72;0.80;;;;;;;;;;5051537;28;20104;-42
2021/07/20 10:13:20;;;;;;;2.42;0.82;;;;;;;;;;5050533;28;20384;-40
2021/07/20 10:15:47;;;;;;;4.22;0.85;;;;;;;;;;5051081;28;20076;-42
2021/07/20 10:18:34;;;;;;;1.63;0.70;;;;;;;;;;5051254;28;20021;-42
2021/07/20 10:21:03;;;;;;;1.92;0.82;;;;;;;;;;5046786;28;20033;-44
2021/07/20 10:23:39;;;;;;;2.05;0.88;;;;;;;;;;5050945;28;20469;-40
2021/07/20 10:26:15;;;;;;;3.80;0.70;;;;;;;;;;5051820;28;20099;-41
2021/07/20 10:28:50;;;;;;;1.60;0.68;;;;;;;;;;5050583;28;20033;-41
2021/07/20 10:31:30;;;;;;;2.47;0.90;;;;;;;;;;5051061;28;20029;-42
2021/07/20 10:33:59;;;;;;;3.30;0.80;;;;;;;;;;5050579;28;20390;-42
2021/07/20 10:36:31;;;;;;;1.15;0.57;;;;;;;;;;5050941;28;20500;-41
2021/07/20 10:39:08;;;;;;;2.45;0.65;;;;;;;;;;5050631;28;20021;-42
2021/07/20 10:41:39;;;;;;;2.88;0.73;;;;;;;;;;5050728;28;20499;-42
2021/07/20 10:44:11;;;;;;;2.97;0.90;;;;;;;;;;5052843;28;20507;-41
2021/07/20 10:46:39;;;;;;;4.72;0.55;;;;;;;;;;5054749;28;20041;-41
2021/07/20 10:49:29;;;;;;;4.50;0.80;;;;;;;;;;5054271;28;20029;-41
2021/07/20 10:52:00;;;;;;;3.97;0.70;;;;;;;;;;5044285;28;20037;-41
2021/07/20 10:54:35;;;;;;;3.25;0.88;;;;;;;;;;5053964;28;20025;-41
2021/07/20 10:57:03;;;;;;;4.20;0.95;;;;;;;;;;5054366;28;20044;-43
2021/07/20 10:59:34;;;;;;;1.17;0.47;;;;;;;;;;5053946;28;20025;-41
2021/07/20 11:02:11;;;;;;;9.75;0.98;;;;;;;;;;5054446;28;20021;-41
2021/07/20 11:04:58;;;;;;;5.05;0.90;;;;;;;;;;5054066;28;20029;-45
2021/07/20 11:07:29;;;;;;;5.47;0.93;;;;;;;;;;5053941;28;20471;-41
2021/07/20 11:09:58;;;;;;;6.50;0.90;;;;;;;;;;5053927;28;20111;-41
2021/07/20 11:12:29;;;;;;;12.25;1.63;;;;;;;;;;5053860;28;20041;-41
2021/07/20 11:14:57;;;;;;;8.40;1.00;;;;;;;;;;5053667;28;20029;-42
2021/07/20 11:17:25;;;;;;;5.65;1.13;;;;;;;;;;5053917;28;20040;-40
2021/07/20 11:19:53;;;;;;;5.00;1.00;;;;;;;;;;5053650;28;20035;-43
2021/07/20 11:22:21;;;;;;;11.15;0.90;;;;;;;;;;5053765;28;20036;-43
2021/07/20 11:24:49;;;;;;;9.65;1.20;;;;;;;;;;5047209;28;20040;-41
2021/07/20 11:27:19;;;;;;;11.40;1.50;;;;;;;;;;5049836;28;20059;-46
2021/07/20 11:29:46;;;;;;;10.13;1.42;;;;;;;;;;5053130;28;20075;-41
2021/07/20 11:32:15;;;;;;;17.40;2.03;;;;;;;;;;5048851;28;20031;-44
2021/07/20 11:34:45;;;;;;;9.02;1.58;;;;;;;;;;5048682;28;20029;-52
2021/07/20 11:40:27;;;;;;;11.27;2.08;;;;;;;;;;4833616;28;20765;-49
2021/07/20 11:43:09;;;;;;;10.63;1.48;;;;;;;;;;5012505;28;20022;-45
2021/07/20 11:45:47;;;;;;;10.23;1.23;;;;;;;;;;5013085;28;20046;-46
2021/07/20 11:48:14;;;;;;;3.80;1.20;;;;;;;;;;5011546;28;20024;-46
2021/07/20 11:50:43;;;;;;;9.25;1.23;;;;;;;;;;5013339;28;20041;-46
2021/07/20 11:53:26;;;;;;;13.43;1.67;;;;;;;;;;5013225;28;20026;-43
2021/07/20 11:56:00;;;;;;;11.07;1.20;;;;;;;;;;5012117;28;20034;-46
2021/07/20 11:58:50;;;;;;;9.30;2.00;;;;;;;;;;5012309;28;20028;-43
2021/07/20 12:01:35;;;;;;;7.63;1.75;;;;;;;;;;5012898;28;20026;-45
2021/07/20 12:04:17;;;;;;;11.45;1.35;;;;;;;;;;5012854;28;20097;-47
2021/07/20 12:06:44;;;;;;;16.10;1.70;;;;;;;;;;5013715;28;20041;-42
2021/07/20 12:09:38;;;;;;;5.68;1.35;;;;;;;;;;5013222;28;20072;-50
2021/07/20 12:12:05;;;;;;;12.18;1.77;;;;;;;;;;5008963;28;20103;-49
2021/07/20 12:14:32;;;;;;;13.73;2.10;;;;;;;;;;5012006;28;20076;-47
2021/07/20 12:16:59;;;;;;;13.27;1.73;;;;;;;;;;5006706;28;20828;-43
2021/07/20 12:19:30;;;;;;;9.32;1.92;;;;;;;;;;5005856;28;20021;-45
2021/07/20 12:22:08;;;;;;;12.48;2.00;;;;;;;;;;5010815;28;20054;-42
2021/07/20 12:24:36;;;;;;;11.40;1.73;;;;;;;;;;5012369;28;20018;-40
2021/07/20 12:27:04;;;;;;;5.53;1.48;;;;;;;;;;5013060;28;20033;-41
2021/07/20 12:29:31;;;;;;;10.07;2.00;;;;;;;;;;5012213;28;20117;-43
2021/07/20 12:32:00;;;;;;;9.38;1.67;;;;;;;;;;5009336;28;20096;-48
2021/07/20 12:34:28;;;;;;;13.07;2.22;;;;;;;;;;5011904;28;20018;-46
2021/07/20 12:36:55;;;;;;;13.88;1.90;;;;;;;;;;5014920;28;20393;-48
2021/07/20 12:39:23;;;;;;;14.52;2.40;;;;;;;;;;5031181;28;20042;-46
2021/07/20 12:41:52;;;;;;;12.82;2.05;;;;;;;;;;5032693;28;20107;-48
2021/07/20 12:44:20;;;;;;;10.95;2.17;;;;;;;;;;5030289;28;20029;-46
2021/07/20 12:46:47;;;;;;;10.60;2.28;;;;;;;;;;5014029;28;20044;-44
2021/07/20 12:49:15;;;;;;;10.98;2.10;;;;;;;;;;5031550;28;20020;-45
2021/07/20 12:51:55;;;;;;;18.27;2.15;;;;;;;;;;5030727;28;20045;-41
2021/07/20 12:54:41;;;;;;;13.13;2.50;;;;;;;;;;5025597;28;20021;-40
2021/07/20 12:57:10;;;;;;;16.42;1.80;;;;;;;;;;5028141;28;20038;-42
2021/07/20 12:59:39;;;;;;;12.95;2.55;;;;;;;;;;5030826;28;20017;-44
2021/07/20 13:02:14;;;;;;;13.98;2.00;;;;;;;;;;5031069;28;20053;-40
2021/07/20 13:04:48;;;;;;;11.07;1.83;;;;;;;;;;5030929;28;20029;-38
2021/07/20 13:07:17;;;;;;;12.75;2.13;;;;;;;;;;5029807;28;20033;-40
2021/07/20 13:09:48;;;;;;;13.45;2.20;;;;;;;;;;5023172;28;20477;-50
2021/07/20 13:12:20;;;;;;;11.20;2.42;;;;;;;;;;5031430;28;20021;-45
2021/07/20 13:14:48;;;;;;;17.27;2.35;;;;;;;;;;5031831;28;20052;-45
2021/07/20 13:17:19;;;;;;;11.27;1.80;;;;;;;;;;5030697;28;20064;-44
2021/07/20 13:19:49;;;;;;;8.55;1.77;;;;;;;;;;5028853;28;20025;-42
2021/07/20 13:22:25;;;;;;;13.55;2.13;;;;;;;;;;5024763;28;20021;-47
2021/07/20 13:24:55;;;;;;;10.27;1.80;;;;;;;;;;5025975;28;20026;-49
2021/07/20 13:27:22;;;;;;;14.40;2.55;;;;;;;;;;5031113;28;20047;-46
2021/07/20 13:29:49;;;;;;;11.80;1.80;;;;;;;;;;5031697;28;20035;-47
2021/07/20 13:32:17;;;;;;;14.35;2.28;;;;;;;;;;5031640;28;20025;-49
2021/07/20 13:34:47;;;;;;;9.82;2.22;;;;;;;;;;5029050;28;20040;-48
2021/07/20 13:37:14;;;;;;;11.32;1.75;;;;;;;;;;5029507;28;20029;-49
2021/07/20 13:39:41;;;;;;;16.17;2.10;;;;;;;;;;5029852;28;20132;-49
2021/07/20 13:42:08;;;;;;;9.73;1.50;;;;;;;;;;5013548;28;20028;-47
2021/07/20 13:44:36;;;;;;;13.70;1.77;;;;;;;;;;5028558;28;20104;-53
2021/07/20 13:47:03;;;;;;;7.40;1.58;;;;;;;;;;5029345;28;20037;-47
2021/07/20 13:49:31;;;;;;;13.95;1.85;;;;;;;;;;5028374;28;20562;-53
2021/07/20 13:51:59;;;;;;;11.10;1.95;;;;;;;;;;5030462;28;20017;-50
2021/07/20 13:54:27;;;;;;;14.02;2.05;;;;;;;;;;5030154;28;20430;-47
2021/07/20 13:56:56;;;;;;;10.30;1.58;;;;;;;;;;5031536;28;20069;-48
2021/07/20 13:59:29;;;;;;;10.55;1.77;;;;;;;;;;5027660;28;20029;-47
2021/07/20 14:01:56;;;;;;;6.63;1.88;;;;;;;;;;5029700;28;20091;-44
2021/07/20 14:04:23;;;;;;;12.05;2.10;;;;;;;;;;5030452;28;20029;-48
2021/07/20 14:06:51;;;;;;;10.27;2.10;;;;;;;;;;5031139;28;20075;-45
2021/07/20 14:09:18;;;;;;;9.48;1.95;;;;;;;;;;5030242;28;20631;-49
2021/07/20 14:11:47;;;;;;;10.68;1.70;;;;;;;;;;5029055;28;20109;-49
2021/07/20 14:14:15;;;;;;;14.35;2.13;;;;;;;;;;5030469;28;20036;-44
2021/07/20 14:16:43;;;;;;;9.15;2.20;;;;;;;;;;5030829;28;20034;-49
2021/07/20 14:19:11;;;;;;;11.60;1.65;;;;;;;;;;5033530;28;20542;-47
2021/07/20 14:21:39;;;;;;;11.50;1.70;;;;;;;;;;5033856;28;20108;-44
2021/07/20 14:24:06;;;;;;;12.32;2.00;;;;;;;;;;5032779;28;20353;-45
2021/07/20 14:26:37;;;;;;;8.63;1.80;;;;;;;;;;5033892;28;20025;-47
2021/07/20 14:29:04;;;;;;;10.68;1.40;;;;;;;;;;5034685;28;20357;-43
2021/07/20 14:31:32;;;;;;;4.88;1.55;;;;;;;;;;5016383;28;20118;-44
2021/07/20 14:34:06;;;;;;;8.13;1.52;;;;;;;;;;5034547;28;20472;-47
2021/07/20 14:36:36;;;;;;;9.30;1.70;;;;;;;;;;5030664;28;20040;-44
2021/07/20 14:39:04;;;;;;;7.10;1.80;;;;;;;;;;5034056;28;20068;-45
2021/07/20 14:41:31;;;;;;;10.18;1.90;;;;;;;;;;5030997;28;20029;-50
2021/07/20 14:44:00;;;;;;;9.63;1.70;;;;;;;;;;5033314;28;20053;-49
2021/07/20 14:46:47;;;;;;;5.90;1.67;;;;;;;;;;5032848;28;20761;-50
2021/07/20 14:49:20;;;;;;;3.90;1.67;;;;;;;;;;5032241;28;20022;-46
2021/07/20 14:51:47;;;;;;;7.07;1.38;;;;;;;;;;5034119;28;20030;-50
2021/07/20 14:54:25;;;;;;;9.80;1.85;;;;;;;;;;5022691;28;20686;-47
2021/07/20 14:56:55;;;;;;;11.35;1.42;;;;;;;;;;5026502;28;20051;-47
2021/07/20 14:59:22;;;;;;;10.98;1.88;;;;;;;;;;5024547;28;20537;-46
2021/07/20 15:01:49;;;;;;;9.15;1.40;;;;;;;;;;5014983;28;20123;-49
2021/07/20 15:04:20;;;;;;;10.25;1.60;;;;;;;;;;5016559;28;20687;-51